sensor_id;sensor_type;location;lat;lon;timestamp;pressure;altitude;pressure_sealevel;temperature;humidity
11314;BME280;5712;48.858;9.206;2023-08-24T00:01:40;98336.31;;;20.09;96.65
11314;BME280;5712;48.858;9.206;2023-08-24T00:04:06;98338.94;;;20.01;97.07
11314;BME280;5712;48.858;9.206;2023-08-24T00:06:34;98333.00;;;19.98;98.15
11314;BME280;5712;48.858;9.206;2023-08-24T00:09:01;98333.81;;;19.90;99.08
11314;BME280;5712;48.858;9.206;2023-08-24T00:11:30;98339.97;;;19.83;100.00
11314;BME280;5712;48.858;9.206;2023-08-24T00:13:56;98337.06;;;19.76;100.00
11314;BME280;5712;48.858;9.206;2023-08-24T00:16:23;98338.06;;;19.75;100.00
11314;BME280;5712;48.858;9.206;2023-08-24T00:18:49;98331.03;;;19.74;100.00
11314;BME280;5712;48.858;9.206;2023-08-24T00:21:16;98340.38;;;19.70;100.00
11314;BME280;5712;48.858;9.206;2023-08-24T00:23:43;98333.34;;;19.69;100.00
11314;BME280;5712;48.858;9.206;2023-08-24T00:26:10;98337.19;;;19.67;100.00
11314;BME280;5712;48.858;9.206;2023-08-24T00:28:36;98331.28;;;19.63;100.00
11314;BME280;5712;48.858;9.206;2023-08-24T00:31:03;98324.94;;;19.64;100.00
11314;BME280;5712;48.858;9.206;2023-08-24T00:33:29;98312.69;;;19.62;100.00
11314;BME280;5712;48.858;9.206;2023-08-24T00:35:59;98320.75;;;19.62;100.00
11314;BME280;5712;48.858;9.206;2023-08-24T00:38:26;98312.16;;;19.58;100.00
11314;BME280;5712;48.858;9.206;2023-08-24T00:40:54;98310.28;;;19.51;100.00
11314;BME280;5712;48.858;9.206;2023-08-24T00:43:21;98312.88;;;19.43;100.00
11314;BME280;5712;48.858;9.206;2023-08-24T00:45:49;98308.69;;;19.40;100.00
11314;BME280;5712;48.858;9.206;2023-08-24T00:48:16;98310.66;;;19.38;100.00
11314;BME280;5712;48.858;9.206;2023-08-24T00:50:43;98306.16;;;19.39;100.00
11314;BME280;5712;48.858;9.206;2023-08-24T00:53:10;98298.28;;;19.37;100.00
11314;BME280;5712;48.858;9.206;2023-08-24T00:55:36;98300.28;;;19.35;100.00
11314;BME280;5712;48.858;9.206;2023-08-24T00:58:04;98298.59;;;19.34;100.00
11314;BME280;5712;48.858;9.206;2023-08-24T01:00:32;98294.91;;;19.35;100.00
11314;BME280;5712;48.858;9.206;2023-08-24T01:02:58;98299.94;;;19.38;100.00
11314;BME280;5712;48.858;9.206;2023-08-24T01:05:25;98285.53;;;19.39;100.00
11314;BME280;5712;48.858;9.206;2023-08-24T01:07:51;98291.44;;;19.43;100.00
11314;BME280;5712;48.858;9.206;2023-08-24T01:10:18;98279.88;;;19.42;100.00
11314;BME280;5712;48.858;9.206;2023-08-24T01:12:57;98281.03;;;19.40;100.00
11314;BME280;5712;48.858;9.206;2023-08-24T01:15:32;98290.38;;;19.36;100.00
11314;BME280;5712;48.858;9.206;2023-08-24T01:18:11;98289.84;;;19.32;100.00
11314;BME280;5712;48.858;9.206;2023-08-24T01:20:40;98292.53;;;19.32;100.00
11314;BME280;5712;48.858;9.206;2023-08-24T01:23:19;98287.31;;;19.31;100.00
11314;BME280;5712;48.858;9.206;2023-08-24T01:25:52;98285.97;;;19.27;100.00
11314;BME280;5712;48.858;9.206;2023-08-24T01:28:20;98273.72;;;19.24;100.00
11314;BME280;5712;48.858;9.206;2023-08-24T01:30:47;98277.22;;;19.25;100.00
11314;BME280;5712;48.858;9.206;2023-08-24T01:33:14;98271.94;;;19.15;100.00
11314;BME280;5712;48.858;9.206;2023-08-24T01:35:41;98279.28;;;19.13;100.00
11314;BME280;5712;48.858;9.206;2023-08-24T01:38:08;98274.88;;;19.04;100.00
11314;BME280;5712;48.858;9.206;2023-08-24T01:40:45;98284.22;;;19.00;100.00
11314;BME280;5712;48.858;9.206;2023-08-24T01:43:15;98293.09;;;19.01;100.00
11314;BME280;5712;48.858;9.206;2023-08-24T01:45:44;98292.09;;;19.02;100.00
11314;BME280;5712;48.858;9.206;2023-08-24T01:48:12;98300.66;;;19.05;100.00
11314;BME280;5712;48.858;9.206;2023-08-24T01:50:40;98287.28;;;19.05;100.00
11314;BME280;5712;48.858;9.206;2023-08-24T01:53:07;98281.91;;;19.05;100.00
11314;BME280;5712;48.858;9.206;2023-08-24T01:55:34;98285.13;;;19.09;100.00
11314;BME280;5712;48.858;9.206;2023-08-24T01:58:01;98279.91;;;19.07;100.00
11314;BME280;5712;48.858;9.206;2023-08-24T02:00:27;98279.72;;;19.01;100.00
11314;BME280;5712;48.858;9.206;2023-08-24T02:02:55;98283.22;;;19.01;100.00
11314;BME280;5712;48.858;9.206;2023-08-24T02:05:22;98288.50;;;18.93;100.00
11314;BME280;5712;48.858;9.206;2023-08-24T02:07:52;98297.53;;;18.92;100.00
11314;BME280;5712;48.858;9.206;2023-08-24T02:10:19;98292.63;;;18.88;100.00
11314;BME280;5712;48.858;9.206;2023-08-24T02:12:45;98294.09;;;18.82;100.00
11314;BME280;5712;48.858;9.206;2023-08-24T02:15:12;98286.38;;;18.79;100.00
11314;BME280;5712;48.858;9.206;2023-08-24T02:17:38;98297.91;;;18.80;100.00
11314;BME280;5712;48.858;9.206;2023-08-24T02:20:07;98289.22;;;18.78;100.00
11314;BME280;5712;48.858;9.206;2023-08-24T02:22:34;98291.16;;;18.76;100.00
11314;BME280;5712;48.858;9.206;2023-08-24T02:25:01;98286.66;;;18.76;100.00
11314;BME280;5712;48.858;9.206;2023-08-24T02:27:28;98283.47;;;18.73;100.00
11314;BME280;5712;48.858;9.206;2023-08-24T02:29:54;98278.56;;;18.68;100.00
11314;BME280;5712;48.858;9.206;2023-08-24T02:32:21;98273.50;;;18.65;100.00
11314;BME280;5712;48.858;9.206;2023-08-24T02:34:47;98280.53;;;18.66;100.00
11314;BME280;5712;48.858;9.206;2023-08-24T02:37:15;98278.84;;;18.65;100.00
11314;BME280;5712;48.858;9.206;2023-08-24T02:39:42;98284.53;;;18.62;100.00
11314;BME280;5712;48.858;9.206;2023-08-24T02:42:08;98278.19;;;18.63;100.00
11314;BME280;5712;48.858;9.206;2023-08-24T02:44:35;98273.22;;;18.68;100.00
11314;BME280;5712;48.858;9.206;2023-08-24T02:47:01;98279.94;;;18.72;100.00
11314;BME280;5712;48.858;9.206;2023-08-24T02:49:28;98277.34;;;18.80;100.00
11314;BME280;5712;48.858;9.206;2023-08-24T02:51:54;98270.00;;;18.82;100.00
11314;BME280;5712;48.858;9.206;2023-08-24T02:54:22;98271.66;;;18.83;100.00
11314;BME280;5712;48.858;9.206;2023-08-24T02:56:49;98277.16;;;18.82;100.00
11314;BME280;5712;48.858;9.206;2023-08-24T02:59:15;98281.03;;;18.79;100.00
11314;BME280;5712;48.858;9.206;2023-08-24T03:01:41;98263.25;;;18.78;100.00
11314;BME280;5712;48.858;9.206;2023-08-24T03:04:08;98264.56;;;18.74;100.00
11314;BME280;5712;48.858;9.206;2023-08-24T03:06:34;98261.38;;;18.71;100.00
11314;BME280;5712;48.858;9.206;2023-08-24T03:09:01;98268.53;;;18.70;100.00
11314;BME280;5712;48.858;9.206;2023-08-24T03:11:30;98262.19;;;18.71;100.00
11314;BME280;5712;48.858;9.206;2023-08-24T03:13:57;98260.38;;;18.72;100.00
11314;BME280;5712;48.858;9.206;2023-08-24T03:16:23;98267.53;;;18.71;100.00
11314;BME280;5712;48.858;9.206;2023-08-24T03:18:50;98253.16;;;18.72;100.00
11314;BME280;5712;48.858;9.206;2023-08-24T03:21:16;98260.91;;;18.75;100.00
11314;BME280;5712;48.858;9.206;2023-08-24T03:23:43;98255.94;;;18.80;100.00
11314;BME280;5712;48.858;9.206;2023-08-24T03:26:09;98254.25;;;18.79;100.00
11314;BME280;5712;48.858;9.206;2023-08-24T03:28:37;98252.91;;;18.83;100.00
11314;BME280;5712;48.858;9.206;2023-08-24T03:31:03;98252.53;;;18.78;100.00
11314;BME280;5712;48.858;9.206;2023-08-24T03:33:32;98254.91;;;18.64;100.00
11314;BME280;5712;48.858;9.206;2023-08-24T03:35:59;98252.63;;;18.51;100.00
11314;BME280;5712;48.858;9.206;2023-08-24T03:38:26;98250.56;;;18.45;100.00
11314;BME280;5712;48.858;9.206;2023-08-24T03:40:59;98241.00;;;18.43;100.00
11314;BME280;5712;48.858;9.206;2023-08-24T03:43:26;98234.78;;;18.42;100.00
11314;BME280;5712;48.858;9.206;2023-08-24T03:45:53;98238.47;;;18.41;100.00
11314;BME280;5712;48.858;9.206;2023-08-24T03:48:20;98228.47;;;18.43;100.00
11314;BME280;5712;48.858;9.206;2023-08-24T03:50:46;98229.44;;;18.42;100.00
11314;BME280;5712;48.858;9.206;2023-08-24T03:53:13;98229.44;;;18.42;100.00
11314;BME280;5712;48.858;9.206;2023-08-24T03:55:39;98219.13;;;18.47;100.00
11314;BME280;5712;48.858;9.206;2023-08-24T03:58:06;98214.84;;;18.54;100.00
11314;BME280;5712;48.858;9.206;2023-08-24T04:00:33;98208.19;;;18.58;100.00
11314;BME280;5712;48.858;9.206;2023-08-24T04:03:01;98206.56;;;18.65;100.00
11314;BME280;5712;48.858;9.206;2023-08-24T04:05:27;98204.94;;;18.72;100.00
11314;BME280;5712;48.858;9.206;2023-08-24T04:07:54;98208.34;;;18.74;100.00
11314;BME280;5712;48.858;9.206;2023-08-24T04:10:20;98200.69;;;18.79;100.00
11314;BME280;5712;48.858;9.206;2023-08-24T04:12:47;98199.22;;;18.85;100.00
11314;BME280;5712;48.858;9.206;2023-08-24T04:15:13;98196.91;;;18.90;100.00
11314;BME280;5712;48.858;9.206;2023-08-24T04:17:40;98194.06;;;18.91;100.00
11314;BME280;5712;48.858;9.206;2023-08-24T04:20:09;98187.56;;;18.94;100.00
11314;BME280;5712;48.858;9.206;2023-08-24T04:22:35;98198.78;;;18.97;100.00
11314;BME280;5712;48.858;9.206;2023-08-24T04:25:02;98196.09;;;18.97;100.00
11314;BME280;5712;48.858;9.206;2023-08-24T04:27:29;98193.13;;;19.00;100.00
11314;BME280;5712;48.858;9.206;2023-08-24T04:29:56;98190.47;;;19.00;100.00
11314;BME280;5712;48.858;9.206;2023-08-24T04:32:22;98190.47;;;19.00;100.00
11314;BME280;5712;48.858;9.206;2023-08-24T04:34:49;98193.13;;;19.00;100.00
11314;BME280;5712;48.858;9.206;2023-08-24T04:37:17;98198.50;;;19.00;100.00
11314;BME280;5712;48.858;9.206;2023-08-24T04:39:43;98192.59;;;18.97;100.00
11314;BME280;5712;48.858;9.206;2023-08-24T04:42:10;98190.06;;;18.95;100.00
11314;BME280;5712;48.858;9.206;2023-08-24T04:44:36;98183.34;;;18.91;100.00
11314;BME280;5712;48.858;9.206;2023-08-24T04:47:03;98187.34;;;18.87;100.00
11314;BME280;5712;48.858;9.206;2023-08-24T04:49:29;98180.75;;;18.82;100.00
11314;BME280;5712;48.858;9.206;2023-08-24T04:51:56;98171.53;;;18.76;100.00
11314;BME280;5712;48.858;9.206;2023-08-24T04:54:24;98177.84;;;18.67;100.00
11314;BME280;5712;48.858;9.206;2023-08-24T04:56:50;98177.06;;;18.57;100.00
11314;BME280;5712;48.858;9.206;2023-08-24T04:59:17;98177.53;;;18.53;100.00
11314;BME280;5712;48.858;9.206;2023-08-24T05:01:43;98184.31;;;18.47;100.00
11314;BME280;5712;48.858;9.206;2023-08-24T05:04:10;98187.31;;;18.44;100.00
11314;BME280;5712;48.858;9.206;2023-08-24T05:06:36;98186.94;;;18.39;100.00
11314;BME280;5712;48.858;9.206;2023-08-24T05:09:03;98186.31;;;18.45;100.00
11314;BME280;5712;48.858;9.206;2023-08-24T05:11:30;98172.31;;;18.51;100.00
11314;BME280;5712;48.858;9.206;2023-08-24T05:13:57;98174.06;;;18.60;100.00
11314;BME280;5712;48.858;9.206;2023-08-24T05:16:24;98166.50;;;18.73;100.00
11314;BME280;5712;48.858;9.206;2023-08-24T05:18:50;98160.03;;;18.84;100.00
11314;BME280;5712;48.858;9.206;2023-08-24T05:21:17;98157.56;;;18.90;100.00
11314;BME280;5712;48.858;9.206;2023-08-24T05:23:43;98152.06;;;18.92;100.00
11314;BME280;5712;48.858;9.206;2023-08-24T05:26:10;98146.41;;;18.95;100.00
11314;BME280;5712;48.858;9.206;2023-08-24T05:28:37;98148.25;;;19.02;100.00
11314;BME280;5712;48.858;9.206;2023-08-24T05:31:04;98148.63;;;19.07;100.00
11314;BME280;5712;48.858;9.206;2023-08-24T05:33:30;98146.56;;;19.19;100.00
11314;BME280;5712;48.858;9.206;2023-08-24T05:35:58;98147.44;;;19.27;100.00
11314;BME280;5712;48.858;9.206;2023-08-24T05:38:25;98151.84;;;19.36;100.00
11314;BME280;5712;48.858;9.206;2023-08-24T05:40:51;98134.50;;;19.48;100.00
11314;BME280;5712;48.858;9.206;2023-08-24T05:43:18;98136.75;;;19.69;100.00
11314;BME280;5712;48.858;9.206;2023-08-24T05:45:47;98137.94;;;19.82;100.00
11314;BME280;5712;48.858;9.206;2023-08-24T05:48:14;98134.66;;;19.96;100.00
11314;BME280;5712;48.858;9.206;2023-08-24T05:50:44;98137.56;;;20.11;100.00
11314;BME280;5712;48.858;9.206;2023-08-24T05:53:11;98129.53;;;20.19;100.00
11314;BME280;5712;48.858;9.206;2023-08-24T05:55:38;98134.22;;;20.25;100.00
11314;BME280;5712;48.858;9.206;2023-08-24T05:58:04;98137.75;;;20.33;100.00
11314;BME280;5712;48.858;9.206;2023-08-24T06:00:31;98131.38;;;20.42;100.00
11314;BME280;5712;48.858;9.206;2023-08-24T06:02:59;98136.44;;;20.53;100.00
11314;BME280;5712;48.858;9.206;2023-08-24T06:05:26;98133.41;;;20.64;100.00
11314;BME280;5712;48.858;9.206;2023-08-24T06:07:52;98134.75;;;20.76;100.00
11314;BME280;5712;48.858;9.206;2023-08-24T06:10:20;98134.75;;;20.92;100.00
11314;BME280;5712;48.858;9.206;2023-08-24T06:12:46;98135.75;;;20.99;100.00
11314;BME280;5712;48.858;9.206;2023-08-24T06:15:13;98132.03;;;21.08;100.00
11314;BME280;5712;48.858;9.206;2023-08-24T06:17:39;98132.16;;;21.23;100.00
11314;BME280;5712;48.858;9.206;2023-08-24T06:20:08;98134.63;;;21.40;100.00
11314;BME280;5712;48.858;9.206;2023-08-24T06:22:36;98131.34;;;21.61;98.63
11314;BME280;5712;48.858;9.206;2023-08-24T06:25:03;98130.78;;;21.81;94.76
11314;BME280;5712;48.858;9.206;2023-08-24T06:27:30;98135.41;;;21.95;92.68
11314;BME280;5712;48.858;9.206;2023-08-24T06:29:57;98141.06;;;22.08;90.94
11314;BME280;5712;48.858;9.206;2023-08-24T06:32:23;98145.03;;;22.20;90.57
11314;BME280;5712;48.858;9.206;2023-08-24T06:34:50;98138.59;;;22.29;89.00
11314;BME280;5712;48.858;9.206;2023-08-24T06:37:18;98148.16;;;22.32;87.06
11314;BME280;5712;48.858;9.206;2023-08-24T06:39:44;98149.97;;;22.39;84.99
11314;BME280;5712;48.858;9.206;2023-08-24T06:42:11;98156.72;;;22.35;83.63
11314;BME280;5712;48.858;9.206;2023-08-24T06:44:37;98173.91;;;22.34;83.94
11314;BME280;5712;48.858;9.206;2023-08-24T06:47:04;98184.19;;;22.31;83.93
11314;BME280;5712;48.858;9.206;2023-08-24T06:49:30;98193.81;;;22.25;83.27
11314;BME280;5712;48.858;9.206;2023-08-24T06:51:57;98190.44;;;22.23;81.98
11314;BME280;5712;48.858;9.206;2023-08-24T06:54:24;98205.28;;;22.19;81.58
11314;BME280;5712;48.858;9.206;2023-08-24T06:56:51;98220.72;;;22.25;82.69
11314;BME280;5712;48.858;9.206;2023-08-24T06:59:17;98227.13;;;22.24;83.53
11314;BME280;5712;48.858;9.206;2023-08-24T07:01:44;98205.75;;;22.23;82.77
11314;BME280;5712;48.858;9.206;2023-08-24T07:04:12;98192.06;;;22.32;81.68
11314;BME280;5712;48.858;9.206;2023-08-24T07:06:39;98177.63;;;22.33;80.50
11314;BME280;5712;48.858;9.206;2023-08-24T07:09:05;98183.47;;;22.37;81.44
11314;BME280;5712;48.858;9.206;2023-08-24T07:11:34;98179.88;;;22.52;81.01
11314;BME280;5712;48.858;9.206;2023-08-24T07:14:00;98153.81;;;22.67;79.83
11314;BME280;5712;48.858;9.206;2023-08-24T07:16:27;98156.25;;;22.77;82.25
11314;BME280;5712;48.858;9.206;2023-08-24T07:18:54;98153.13;;;22.88;83.64
11314;BME280;5712;48.858;9.206;2023-08-24T07:21:20;98153.00;;;23.04;83.43
11314;BME280;5712;48.858;9.206;2023-08-24T07:23:47;98144.97;;;23.10;83.23
11314;BME280;5712;48.858;9.206;2023-08-24T07:26:13;98158.28;;;23.12;83.33
11314;BME280;5712;48.858;9.206;2023-08-24T07:28:41;98147.66;;;23.18;82.43
11314;BME280;5712;48.858;9.206;2023-08-24T07:31:08;98148.31;;;23.20;81.73
11314;BME280;5712;48.858;9.206;2023-08-24T07:33:35;98148.66;;;23.17;80.31
11314;BME280;5712;48.858;9.206;2023-08-24T07:36:02;98153.03;;;23.18;80.80
11314;BME280;5712;48.858;9.206;2023-08-24T07:38:29;98153.50;;;23.22;80.76
11314;BME280;5712;48.858;9.206;2023-08-24T07:40:56;98151.53;;;23.16;81.04
11314;BME280;5712;48.858;9.206;2023-08-24T07:43:23;98165.19;;;23.14;81.43
11314;BME280;5712;48.858;9.206;2023-08-24T07:45:50;98142.97;;;23.12;77.77
11314;BME280;5712;48.858;9.206;2023-08-24T07:48:17;98132.53;;;23.09;76.72
11314;BME280;5712;48.858;9.206;2023-08-24T07:50:44;98133.84;;;23.13;76.54
11314;BME280;5712;48.858;9.206;2023-08-24T07:53:10;98133.31;;;23.18;77.10
11314;BME280;5712;48.858;9.206;2023-08-24T07:55:37;98125.81;;;23.28;76.02
11314;BME280;5712;48.858;9.206;2023-08-24T07:58:03;98139.28;;;23.42;77.17
11314;BME280;5712;48.858;9.206;2023-08-24T08:00:30;98140.69;;;23.53;74.90
11314;BME280;5712;48.858;9.206;2023-08-24T08:02:58;98148.78;;;23.67;73.56
11314;BME280;5712;48.858;9.206;2023-08-24T08:05:25;98145.22;;;23.81;71.25
11314;BME280;5712;48.858;9.206;2023-08-24T08:07:52;98137.94;;;23.96;70.24
11314;BME280;5712;48.858;9.206;2023-08-24T08:10:18;98137.31;;;23.94;70.50
11314;BME280;5712;48.858;9.206;2023-08-24T08:12:46;98132.69;;;24.09;69.29
11314;BME280;5712;48.858;9.206;2023-08-24T08:15:13;98135.31;;;24.17;68.47
11314;BME280;5712;48.858;9.206;2023-08-24T08:17:40;98115.72;;;24.15;68.22
11314;BME280;5712;48.858;9.206;2023-08-24T08:20:09;98124.50;;;24.17;69.50
11314;BME280;5712;48.858;9.206;2023-08-24T08:22:37;98120.09;;;24.31;69.26
11314;BME280;5712;48.858;9.206;2023-08-24T08:25:04;98118.59;;;24.49;69.07
11314;BME280;5712;48.858;9.206;2023-08-24T08:27:31;98123.56;;;24.67;69.07
11314;BME280;5712;48.858;9.206;2023-08-24T08:29:59;98123.22;;;24.97;66.71
11314;BME280;5712;48.858;9.206;2023-08-24T08:32:25;98118.44;;;24.99;65.24
11314;BME280;5712;48.858;9.206;2023-08-24T08:34:52;98115.81;;;25.12;65.96
11314;BME280;5712;48.858;9.206;2023-08-24T08:37:20;98124.44;;;25.22;65.45
11314;BME280;5712;48.858;9.206;2023-08-24T08:39:47;98129.97;;;25.35;65.49
11314;BME280;5712;48.858;9.206;2023-08-24T08:42:14;98123.59;;;25.49;65.35
11314;BME280;5712;48.858;9.206;2023-08-24T08:44:41;98123.69;;;25.62;64.62
11314;BME280;5712;48.858;9.206;2023-08-24T08:47:09;98124.56;;;25.76;65.05
11314;BME280;5712;48.858;9.206;2023-08-24T08:49:37;98115.06;;;25.86;64.35
11314;BME280;5712;48.858;9.206;2023-08-24T08:52:05;98103.03;;;25.95;62.05
11314;BME280;5712;48.858;9.206;2023-08-24T08:54:33;98110.38;;;26.08;63.42
11314;BME280;5712;48.858;9.206;2023-08-24T08:56:59;98119.59;;;26.20;63.67
11314;BME280;5712;48.858;9.206;2023-08-24T08:59:27;98104.13;;;26.20;61.44
11314;BME280;5712;48.858;9.206;2023-08-24T09:01:56;98108.34;;;26.29;62.10
11314;BME280;5712;48.858;9.206;2023-08-24T09:04:23;98110.00;;;26.30;61.87
11314;BME280;5712;48.858;9.206;2023-08-24T09:06:50;98106.50;;;26.49;61.91
11314;BME280;5712;48.858;9.206;2023-08-24T09:09:17;98101.75;;;26.58;62.10
11314;BME280;5712;48.858;9.206;2023-08-24T09:11:47;98094.03;;;26.68;61.75
11314;BME280;5712;48.858;9.206;2023-08-24T09:14:13;98091.09;;;26.82;62.14
11314;BME280;5712;48.858;9.206;2023-08-24T09:16:40;98076.94;;;26.93;61.61
11314;BME280;5712;48.858;9.206;2023-08-24T09:19:11;98060.63;;;27.06;60.09
11314;BME280;5712;48.858;9.206;2023-08-24T09:21:38;98063.97;;;27.14;60.54
11314;BME280;5712;48.858;9.206;2023-08-24T09:24:07;98067.94;;;27.25;59.88
11314;BME280;5712;48.858;9.206;2023-08-24T09:26:35;98066.25;;;27.24;60.03
11314;BME280;5712;48.858;9.206;2023-08-24T09:29:12;98058.94;;;27.31;59.84
11314;BME280;5712;48.858;9.206;2023-08-24T09:31:40;98031.72;;;27.57;57.95
11314;BME280;5712;48.858;9.206;2023-08-24T09:34:09;98028.38;;;27.55;57.84
11314;BME280;5712;48.858;9.206;2023-08-24T09:36:37;98020.44;;;27.53;58.24
11314;BME280;5712;48.858;9.206;2023-08-24T09:39:04;98027.50;;;27.67;58.21
11314;BME280;5712;48.858;9.206;2023-08-24T09:41:37;98022.44;;;27.77;57.41
11314;BME280;5712;48.858;9.206;2023-08-24T09:44:04;98019.28;;;27.74;57.46
11314;BME280;5712;48.858;9.206;2023-08-24T09:46:32;98013.81;;;27.87;57.45
11314;BME280;5712;48.858;9.206;2023-08-24T09:48:58;98007.13;;;27.89;56.73
11314;BME280;5712;48.858;9.206;2023-08-24T09:51:27;98004.47;;;27.83;57.16
11314;BME280;5712;48.858;9.206;2023-08-24T09:53:57;97996.31;;;27.83;57.72
11314;BME280;5712;48.858;9.206;2023-08-24T09:56:25;98004.38;;;27.96;59.08
11314;BME280;5712;48.858;9.206;2023-08-24T09:58:54;98000.88;;;28.20;59.61
11314;BME280;5712;48.858;9.206;2023-08-24T10:01:21;97976.53;;;28.38;57.28
11314;BME280;5712;48.858;9.206;2023-08-24T10:03:51;97954.31;;;28.41;55.68
11314;BME280;5712;48.858;9.206;2023-08-24T10:06:19;97957.41;;;28.44;56.37
11314;BME280;5712;48.858;9.206;2023-08-24T10:08:52;97955.88;;;28.55;56.54
11314;BME280;5712;48.858;9.206;2023-08-24T10:11:23;97952.19;;;28.67;57.46
11314;BME280;5712;48.858;9.206;2023-08-24T10:13:58;97940.50;;;28.85;55.63
11314;BME280;5712;48.858;9.206;2023-08-24T10:16:27;97938.75;;;28.97;55.46
11314;BME280;5712;48.858;9.206;2023-08-24T10:18:57;97936.09;;;29.08;55.65
11314;BME280;5712;48.858;9.206;2023-08-24T10:21:23;97915.81;;;29.22;54.44
11314;BME280;5712;48.858;9.206;2023-08-24T10:23:52;97923.91;;;29.29;54.45
11314;BME280;5712;48.858;9.206;2023-08-24T10:26:19;97920.53;;;29.45;55.79
11314;BME280;5712;48.858;9.206;2023-08-24T10:28:47;97932.84;;;29.65;56.11
11314;BME280;5712;48.858;9.206;2023-08-24T10:31:16;97912.44;;;29.86;54.56
11314;BME280;5712;48.858;9.206;2023-08-24T10:33:44;97914.59;;;29.95;54.41
11314;BME280;5712;48.858;9.206;2023-08-24T10:36:13;97911.22;;;30.11;54.26
11314;BME280;5712;48.858;9.206;2023-08-24T10:38:40;97902.69;;;30.19;53.69
11314;BME280;5712;48.858;9.206;2023-08-24T10:41:07;97898.44;;;30.35;53.43
11314;BME280;5712;48.858;9.206;2023-08-24T10:43:35;97897.88;;;30.33;53.14
11314;BME280;5712;48.858;9.206;2023-08-24T10:46:02;97888.63;;;30.34;53.83
11314;BME280;5712;48.858;9.206;2023-08-24T10:48:31;97892.03;;;30.41;54.26
11314;BME280;5712;48.858;9.206;2023-08-24T10:51:19;97889.78;;;30.61;54.67
11314;BME280;5712;48.858;9.206;2023-08-24T10:53:51;97869.88;;;30.83;53.77
11314;BME280;5712;48.858;9.206;2023-08-24T10:56:18;97857.84;;;30.96;52.61
11314;BME280;5712;48.858;9.206;2023-08-24T10:58:45;97855.81;;;31.03;52.01
11314;BME280;5712;48.858;9.206;2023-08-24T11:01:15;97860.31;;;31.09;52.60
11314;BME280;5712;48.858;9.206;2023-08-24T11:03:48;97857.09;;;31.23;52.87
11314;BME280;5712;48.858;9.206;2023-08-24T11:06:20;97855.78;;;31.26;52.36
11314;BME280;5712;48.858;9.206;2023-08-24T11:08:47;97856.97;;;31.30;52.18
11314;BME280;5712;48.858;9.206;2023-08-24T11:11:21;97850.53;;;31.36;52.54
11314;BME280;5712;48.858;9.206;2023-08-24T11:14:15;97849.34;;;31.32;52.25
11314;BME280;5712;48.858;9.206;2023-08-24T11:16:43;97853.25;;;31.36;52.15
11314;BME280;5712;48.858;9.206;2023-08-24T11:19:10;97856.47;;;31.33;52.38
11314;BME280;5712;48.858;9.206;2023-08-24T11:21:40;97853.09;;;31.42;53.48
11314;BME280;5712;48.858;9.206;2023-08-24T11:24:07;97855.34;;;31.45;52.76
11314;BME280;5712;48.858;9.206;2023-08-24T11:26:35;97846.50;;;31.55;52.98
11314;BME280;5712;48.858;9.206;2023-08-24T11:29:05;97840.47;;;31.53;51.95
11314;BME280;5712;48.858;9.206;2023-08-24T11:31:33;97829.56;;;31.53;52.35
11314;BME280;5712;48.858;9.206;2023-08-24T11:33:59;97833.66;;;31.55;53.06
11314;BME280;5712;48.858;9.206;2023-08-24T11:36:26;97809.50;;;31.64;51.70
11314;BME280;5712;48.858;9.206;2023-08-24T11:38:56;97818.63;;;31.69;53.12
11314;BME280;5712;48.858;9.206;2023-08-24T11:41:23;97825.13;;;31.80;53.32
11314;BME280;5712;48.858;9.206;2023-08-24T11:43:58;97811.81;;;31.83;52.20
11314;BME280;5712;48.858;9.206;2023-08-24T11:46:25;97811.78;;;32.00;52.71
11314;BME280;5712;48.858;9.206;2023-08-24T11:48:55;97803.25;;;31.96;51.67
11314;BME280;5712;48.858;9.206;2023-08-24T11:51:21;97806.25;;;31.95;51.91
11314;BME280;5712;48.858;9.206;2023-08-24T11:53:48;97806.75;;;31.92;51.00
11314;BME280;5712;48.858;9.206;2023-08-24T11:56:17;97785.78;;;31.81;50.22
11314;BME280;5712;48.858;9.206;2023-08-24T11:58:48;97799.97;;;31.78;51.44
11314;BME280;5712;48.858;9.206;2023-08-24T12:01:15;97809.91;;;31.84;52.33
11314;BME280;5712;48.858;9.206;2023-08-24T12:03:42;97799.53;;;31.86;52.03
11314;BME280;5712;48.858;9.206;2023-08-24T12:06:13;97801.63;;;31.95;51.70
11314;BME280;5712;48.858;9.206;2023-08-24T12:08:40;97798.78;;;32.07;50.83
11314;BME280;5712;48.858;9.206;2023-08-24T12:11:12;97783.06;;;32.14;49.92
11314;BME280;5712;48.858;9.206;2023-08-24T12:13:44;97779.41;;;32.08;50.26
11314;BME280;5712;48.858;9.206;2023-08-24T12:16:12;97774.25;;;32.12;50.47
11314;BME280;5712;48.858;9.206;2023-08-24T12:18:51;97785.50;;;32.32;51.65
11314;BME280;5712;48.858;9.206;2023-08-24T12:21:18;97782.16;;;32.46;51.68
11314;BME280;5712;48.858;9.206;2023-08-24T12:23:54;97769.03;;;32.65;51.56
11314;BME280;5712;48.858;9.206;2023-08-24T12:26:21;97750.75;;;32.70;49.59
11314;BME280;5712;48.858;9.206;2023-08-24T12:28:53;97753.41;;;32.65;50.54
11314;BME280;5712;48.858;9.206;2023-08-24T12:31:19;97747.75;;;32.72;50.70
11314;BME280;5712;48.858;9.206;2023-08-24T12:33:58;97736.97;;;32.82;49.55
11314;BME280;5712;48.858;9.206;2023-08-24T12:36:25;97723.78;;;32.79;49.92
11314;BME280;5712;48.858;9.206;2023-08-24T12:38:51;97735.66;;;32.89;51.23
11314;BME280;5712;48.858;9.206;2023-08-24T12:41:18;97717.47;;;33.00;50.84
11314;BME280;5712;48.858;9.206;2023-08-24T12:43:44;97719.84;;;33.18;50.89
11314;BME280;5712;48.858;9.206;2023-08-24T12:46:12;97697.59;;;33.36;49.99
11314;BME280;5712;48.858;9.206;2023-08-24T12:48:39;97685.09;;;33.50;48.73
11314;BME280;5712;48.858;9.206;2023-08-24T12:51:05;97690.03;;;33.53;49.22
11314;BME280;5712;48.858;9.206;2023-08-24T12:53:32;97682.09;;;33.51;48.82
11314;BME280;5712;48.858;9.206;2023-08-24T12:55:58;97692.31;;;33.61;49.29
11314;BME280;5712;48.858;9.206;2023-08-24T12:58:25;97688.53;;;33.67;49.07
11314;BME280;5712;48.858;9.206;2023-08-24T13:00:51;97675.78;;;33.82;47.74
11314;BME280;5712;48.858;9.206;2023-08-24T13:03:19;97668.94;;;33.90;47.23
11314;BME280;5712;48.858;9.206;2023-08-24T13:05:45;97668.44;;;33.93;47.59
11314;BME280;5712;48.858;9.206;2023-08-24T13:08:13;97654.50;;;34.04;47.03